createdAt,value
2019-04-14T04:01:32.741Z,6.00
2019-04-14T04:04:01.522Z,5.90
2019-04-14T04:06:31.267Z,6.00
2019-04-14T04:09:00.210Z,5.90
2019-04-14T04:11:30.016Z,5.70
2019-04-14T04:13:58.977Z,5.90
2019-04-14T04:16:37.633Z,6.10
2019-04-14T04:19:16.774Z,6.10
2019-04-14T04:22:04.184Z,6.00
2019-04-14T04:24:37.050Z,5.80
2019-04-14T04:27:25.004Z,5.90
2019-04-14T04:30:10.203Z,6.10
2019-04-14T04:33:02.310Z,6.00
2019-04-14T04:35:37.190Z,6.00
2019-04-14T04:38:29.081Z,5.80
2019-04-14T04:40:59.293Z,5.60
2019-04-14T04:43:28.229Z,5.50
2019-04-14T04:45:58.040Z,5.70
2019-04-14T04:48:26.993Z,5.70
2019-04-14T04:50:56.399Z,5.70
2019-04-14T04:53:25.210Z,5.60
2019-04-14T04:55:54.645Z,5.60
2019-04-14T04:58:24.122Z,5.80
2019-04-14T05:00:54.363Z,5.90
2019-04-14T05:03:23.613Z,5.90
2019-04-14T05:07:07.942Z,5.80
2019-04-14T05:09:55.608Z,5.80
2019-04-14T05:12:43.505Z,5.40
2019-04-14T05:15:40.935Z,5.30
2019-04-14T05:18:15.524Z,5.40
2019-04-14T05:20:44.405Z,5.30
2019-04-14T05:23:13.162Z,5.20
2019-04-14T05:25:42.979Z,5.30
2019-04-14T05:28:11.892Z,5.10
2019-04-14T05:30:41.484Z,5.10
2019-04-14T05:33:10.338Z,5.10
2019-04-14T05:35:40.129Z,5.20
2019-04-14T05:38:08.985Z,5.20
2019-04-14T05:40:38.611Z,5.20
2019-04-14T05:43:08.774Z,5.10
2019-04-14T05:45:37.681Z,5.20
2019-04-14T05:48:07.384Z,5.10
2019-04-14T05:50:36.284Z,5.10
2019-04-14T05:53:06.411Z,4.90
2019-04-14T05:55:35.712Z,5.20
2019-04-14T05:58:05.619Z,5.20
2019-04-14T06:00:36.375Z,5.00
2019-04-14T06:03:05.983Z,5.00
2019-04-14T06:05:36.067Z,5.00
2019-04-14T06:08:05.248Z,4.90
2019-04-14T06:10:34.359Z,4.90
2019-04-14T06:13:03.100Z,4.70
2019-04-14T06:15:31.893Z,5.00
2019-04-14T06:18:00.648Z,4.90
2019-04-14T06:20:29.417Z,5.00
2019-04-14T06:22:58.244Z,5.00
2019-04-14T06:25:26.990Z,5.00
2019-04-14T06:27:55.901Z,5.00
2019-04-14T06:30:52.313Z,5.10
2019-04-14T06:33:33.107Z,5.20
2019-04-14T06:36:08.332Z,5.40
2019-04-14T06:38:39.321Z,5.50
2019-04-14T06:41:10.038Z,5.30
2019-04-14T06:43:48.331Z,5.30
2019-04-14T06:46:09.246Z,4.70
2019-04-14T06:48:37.993Z,4.90
2019-04-14T06:51:25.999Z,5.10
2019-04-14T06:53:54.803Z,4.90
2019-04-14T06:56:23.617Z,4.90
2019-04-14T06:58:52.357Z,5.00
2019-04-14T07:01:21.121Z,5.10
2019-04-14T07:03:49.852Z,5.00
2019-04-14T07:06:18.597Z,4.80
2019-04-14T07:08:47.419Z,4.90
2019-04-14T07:11:16.257Z,4.70
2019-04-14T07:13:48.015Z,4.80
2019-04-14T07:16:15.492Z,4.70
2019-04-14T07:18:44.216Z,4.90
2019-04-14T07:21:13.049Z,5.00
2019-04-14T07:23:41.797Z,5.00
2019-04-14T07:26:10.612Z,4.90
2019-04-14T07:28:39.657Z,5.00
2019-04-14T07:31:22.909Z,5.20
2019-04-14T07:33:58.787Z,5.30
2019-04-14T07:36:49.308Z,5.10
2019-04-14T07:39:49.457Z,4.70
2019-04-14T07:42:28.749Z,4.80
2019-04-14T07:45:04.552Z,4.70
2019-04-14T07:47:44.978Z,4.90
2019-04-14T07:50:34.677Z,5.10
2019-04-14T07:53:29.967Z,5.00
2019-04-14T07:56:13.305Z,4.80
2019-04-14T07:59:01.152Z,5.00
2019-04-14T08:01:35.457Z,5.10
2019-04-14T08:04:21.983Z,4.90
2019-04-14T08:06:52.898Z,5.10
2019-04-14T08:09:21.637Z,5.30
2019-04-14T08:11:50.456Z,5.30
2019-04-14T08:14:19.194Z,5.10
2019-04-14T08:16:47.946Z,4.80
2019-04-14T08:19:16.693Z,4.80
2019-04-14T08:21:45.789Z,5.00
2019-04-14T08:24:14.539Z,5.00
2019-04-14T08:26:43.673Z,5.00
2019-04-14T08:29:12.410Z,5.30
2019-04-14T08:31:41.240Z,5.10
2019-04-14T08:34:09.979Z,5.20
2019-04-14T08:36:38.811Z,5.10
2019-04-14T08:39:07.887Z,5.30
2019-04-14T08:41:43.064Z,5.30
2019-04-14T08:44:19.715Z,5.50
2019-04-14T08:47:06.402Z,5.50
2019-04-14T08:49:43.953Z,5.60
2019-04-14T08:52:36.413Z,5.60
2019-04-14T08:55:13.693Z,5.50
2019-04-14T08:58:07.708Z,5.40
2019-04-14T09:00:56.925Z,5.30
2019-04-14T09:03:44.470Z,5.10
2019-04-14T09:06:17.707Z,5.30
2019-04-14T09:09:00.885Z,5.20
2019-04-14T09:11:34.781Z,5.10
2019-04-14T09:14:03.597Z,5.50
2019-04-14T09:16:32.401Z,5.20
2019-04-14T09:19:07.423Z,5.10
2019-04-14T09:21:31.923Z,5.10
2019-04-14T09:24:00.918Z,4.90
2019-04-14T09:26:29.809Z,5.00
2019-04-14T09:28:58.562Z,5.10
2019-04-14T09:31:27.302Z,5.20
2019-04-14T09:33:56.031Z,5.40
2019-04-14T09:36:25.047Z,5.40
2019-04-14T09:38:53.812Z,5.50
2019-04-14T09:41:22.563Z,5.50
2019-04-14T09:43:51.619Z,5.40
2019-04-14T09:46:20.882Z,5.60
2019-04-14T09:48:49.924Z,5.50
2019-04-14T09:51:18.904Z,5.60
2019-04-14T09:53:47.716Z,5.40
2019-04-14T09:56:16.739Z,5.80
2019-04-14T09:58:45.584Z,6.00
2019-04-14T10:01:14.392Z,5.90
2019-04-14T10:03:43.137Z,5.80
2019-04-14T10:06:11.866Z,5.80
2019-04-14T10:08:40.687Z,5.70
2019-04-14T10:11:09.783Z,5.50
2019-04-14T10:13:38.609Z,5.80
2019-04-14T10:16:07.670Z,5.80
2019-04-14T10:18:36.510Z,5.90
2019-04-14T10:21:16.807Z,6.00
2019-04-14T10:23:35.761Z,5.60
2019-04-14T10:26:05.177Z,5.50
2019-04-14T10:28:34.273Z,5.80
2019-04-14T10:31:03.163Z,6.00
2019-04-14T10:33:32.113Z,6.20
2019-04-14T10:36:00.863Z,6.20
2019-04-14T10:38:29.635Z,6.20
2019-04-14T10:40:58.401Z,6.30
2019-04-14T10:43:27.162Z,6.30
2019-04-14T10:45:55.937Z,6.20
2019-04-14T10:48:25.131Z,6.20
2019-04-14T10:50:54.390Z,6.20
2019-04-14T10:53:23.313Z,5.90
2019-04-14T10:55:52.077Z,5.90
2019-04-14T10:58:20.879Z,6.20
2019-04-14T11:00:49.738Z,6.40
2019-04-14T11:03:19.041Z,6.40
2019-04-14T11:05:53.451Z,6.40
2019-04-14T11:08:22.203Z,6.50
2019-04-14T11:10:51.024Z,6.60
2019-04-14T11:13:19.898Z,6.60
2019-04-14T11:15:49.426Z,6.70
2019-04-14T11:18:18.193Z,6.70
2019-04-14T11:20:46.958Z,6.80
2019-04-14T11:23:15.976Z,6.80
2019-04-14T11:25:45.300Z,6.80
2019-04-14T11:28:16.973Z,6.80
2019-04-14T11:30:58.610Z,6.90
2019-04-14T11:33:53.028Z,6.90
2019-04-14T11:36:40.640Z,7.00
2019-04-14T11:39:11.846Z,7.00
2019-04-14T11:41:40.707Z,6.90
2019-04-14T11:44:10.864Z,7.00
2019-04-14T11:46:39.764Z,7.10
2019-04-14T11:49:16.765Z,7.10
2019-04-14T11:51:55.111Z,7.10
2019-04-14T11:54:16.748Z,7.20
2019-04-14T11:56:45.665Z,7.20
2019-04-14T11:59:15.868Z,7.20
2019-04-14T12:01:54.409Z,7.20
2019-04-14T12:04:29.457Z,7.20
2019-04-14T12:07:16.432Z,7.30
2019-04-14T12:09:54.685Z,7.40
2019-04-14T12:12:23.830Z,7.40
2019-04-14T12:14:52.676Z,7.40
2019-04-14T12:17:22.050Z,7.30
2019-04-14T12:19:51.093Z,7.30
2019-04-14T12:22:19.880Z,7.30
2019-04-14T12:24:48.697Z,7.30
2019-04-14T12:27:17.945Z,7.40
2019-04-14T12:29:47.924Z,7.50
2019-04-14T12:32:17.478Z,7.50
2019-04-14T12:34:46.436Z,7.70
2019-04-14T12:37:17.851Z,7.80
2019-04-14T12:39:48.429Z,7.80
2019-04-14T12:42:27.236Z,7.90
2019-04-14T12:45:29.216Z,8.00
2019-04-14T12:48:16.711Z,8.30
2019-04-14T12:50:50.494Z,8.40
2019-04-14T12:53:19.276Z,8.50
2019-04-14T12:55:53.704Z,8.50
2019-04-14T12:58:30.235Z,8.60
2019-04-14T13:01:03.358Z,8.70
2019-04-14T13:03:34.202Z,8.90
2019-04-14T13:06:03.238Z,8.90
2019-04-14T13:08:32.366Z,9.00
2019-04-14T13:11:05.151Z,9.00
2019-04-14T13:13:35.234Z,8.90
2019-04-14T13:16:08.086Z,8.90
2019-04-14T13:18:39.072Z,8.80
2019-04-14T13:21:10.613Z,8.70
2019-04-14T13:23:39.378Z,8.70
2019-04-14T13:26:09.839Z,8.80
2019-04-14T13:28:38.997Z,8.80
2019-04-14T13:31:07.856Z,8.90
2019-04-14T13:33:37.192Z,8.80
2019-04-14T13:36:06.493Z,8.90
2019-04-14T13:38:35.765Z,8.90
2019-04-14T13:41:05.010Z,8.90
2019-04-14T13:43:33.935Z,8.90
2019-04-14T13:46:03.339Z,8.90
2019-04-14T13:48:32.260Z,9.00
2019-04-14T13:51:01.502Z,9.20
2019-04-14T13:53:30.287Z,9.30
2019-04-14T13:55:59.211Z,9.50
2019-04-14T13:58:28.068Z,9.60
2019-04-14T14:00:56.961Z,9.70
2019-04-14T14:03:25.896Z,9.70
2019-04-14T14:05:55.111Z,9.80
2019-04-14T14:08:24.378Z,10.00
2019-04-14T14:10:56.988Z,10.20
2019-04-14T14:13:51.751Z,10.30
2019-04-14T14:16:37.451Z,10.30
2019-04-14T14:19:11.446Z,10.40
2019-04-14T14:21:48.872Z,10.50
2019-04-14T14:24:30.994Z,10.70
2019-04-14T14:26:59.966Z,10.80
2019-04-14T14:29:29.256Z,10.60
2019-04-14T14:31:58.845Z,10.60
2019-04-14T14:34:28.045Z,10.70
2019-04-14T14:36:57.445Z,10.60
2019-04-14T14:39:26.485Z,10.80
2019-04-14T14:41:55.329Z,10.80
2019-04-14T14:44:27.025Z,10.90
2019-04-14T14:47:13.830Z,10.70
2019-04-14T14:50:00.835Z,10.90
2019-04-14T14:52:30.478Z,11.10
2019-04-14T14:54:59.245Z,11.10
2019-04-14T14:57:28.365Z,11.30
2019-04-14T14:59:57.193Z,11.50
2019-04-14T15:02:25.992Z,11.60
2019-04-14T15:04:55.003Z,11.70
2019-04-14T15:07:23.937Z,11.80
2019-04-14T15:09:53.499Z,11.40
2019-04-14T15:12:22.320Z,11.50
2019-04-14T15:14:51.511Z,11.60
2019-04-14T15:17:23.734Z,11.70
2019-04-14T15:19:52.578Z,11.80
2019-04-14T15:22:22.009Z,11.80
2019-04-14T15:24:50.917Z,11.80
2019-04-14T15:27:19.727Z,11.80
2019-04-14T15:29:49.516Z,11.70
2019-04-14T15:32:18.465Z,11.60
2019-04-14T15:34:47.643Z,11.50
2019-04-14T15:37:16.531Z,11.50
2019-04-14T15:39:45.373Z,11.20
2019-04-14T15:42:14.125Z,11.40
2019-04-14T15:44:42.916Z,11.30
2019-04-14T15:47:12.074Z,11.30
2019-04-14T15:49:40.834Z,11.20
2019-04-14T15:52:09.841Z,11.10
2019-04-14T15:54:38.625Z,11.10
2019-04-14T15:57:25.992Z,11.00
2019-04-14T16:00:05.281Z,10.90
2019-04-14T16:02:59.313Z,10.90
2019-04-14T16:05:36.560Z,11.00
2019-04-14T16:08:19.526Z,10.90
2019-04-14T16:11:10.220Z,10.80
2019-04-14T16:14:01.220Z,10.80
2019-04-14T16:16:39.281Z,10.80
2019-04-14T16:19:18.481Z,10.80
2019-04-14T16:21:47.334Z,10.80
2019-04-14T16:24:16.100Z,10.80
2019-04-14T16:26:53.002Z,10.80
2019-04-14T16:29:25.337Z,10.70
2019-04-14T16:32:06.330Z,10.60
2019-04-14T16:34:41.245Z,10.60
2019-04-14T16:37:10.102Z,10.50
2019-04-14T16:39:38.834Z,10.60
2019-04-14T16:42:07.577Z,10.60
2019-04-14T16:44:36.304Z,10.60
2019-04-14T16:47:05.501Z,10.50
2019-04-14T16:49:34.376Z,10.50
2019-04-14T16:52:24.859Z,10.60
2019-04-14T16:54:59.077Z,10.50
2019-04-14T16:57:45.686Z,10.50
2019-04-14T17:00:21.669Z,10.50
2019-04-14T17:02:50.501Z,10.50
2019-04-14T17:05:19.256Z,10.50
2019-04-14T17:07:48.103Z,10.50
2019-04-14T17:10:16.845Z,10.50
2019-04-14T17:12:45.617Z,10.50
2019-04-14T17:15:28.065Z,10.60
2019-04-14T17:18:11.006Z,10.50
2019-04-14T17:21:14.296Z,10.30
2019-04-14T17:23:50.921Z,10.30
2019-04-14T17:26:43.035Z,10.20
2019-04-14T17:29:23.186Z,10.20
2019-04-14T17:32:14.100Z,10.10
2019-04-14T17:35:02.645Z,10.10
2019-04-14T17:37:47.095Z,10.10
2019-04-14T17:40:26.206Z,10.20
2019-04-14T17:43:09.033Z,10.20
2019-04-14T17:45:46.889Z,10.10
2019-04-14T17:48:33.472Z,10.10
2019-04-14T17:51:09.910Z,10.10
2019-04-14T17:53:44.423Z,10.10
2019-04-14T17:56:20.708Z,10.10
2019-04-14T17:59:00.029Z,10.10
2019-04-14T18:01:36.685Z,10.00
2019-04-14T18:04:30.401Z,10.00
2019-04-14T18:07:03.374Z,9.90
2019-04-14T18:09:53.502Z,10.00
2019-04-14T18:12:34.434Z,9.90
2019-04-14T18:15:32.035Z,9.90
2019-04-14T18:18:20.244Z,9.90
2019-04-14T18:20:55.832Z,9.90
2019-04-14T18:23:24.629Z,9.80
2019-04-14T18:25:53.400Z,9.80
2019-04-14T18:28:40.166Z,9.80
2019-04-14T18:31:15.993Z,9.80
2019-04-14T18:33:55.781Z,9.80
2019-04-14T18:36:31.305Z,9.70
2019-04-14T18:39:19.208Z,9.60
2019-04-14T18:41:56.125Z,9.50
2019-04-14T18:44:33.621Z,9.50
2019-04-14T18:47:30.646Z,9.50
2019-04-14T18:50:04.289Z,9.40
2019-04-14T18:52:50.245Z,9.50
2019-04-14T18:55:36.761Z,9.50
2019-04-14T18:58:18.558Z,9.50
2019-04-14T19:00:53.288Z,9.40
2019-04-14T19:03:22.338Z,9.40
2019-04-14T19:05:51.329Z,9.30
2019-04-14T19:08:20.094Z,9.20
2019-04-14T19:11:01.703Z,9.20
2019-04-14T19:13:32.117Z,9.10
2019-04-14T19:16:05.679Z,9.20
2019-04-14T19:18:37.816Z,9.20
2019-04-14T19:21:09.829Z,9.10
2019-04-14T19:23:38.598Z,9.10
2019-04-14T19:26:07.383Z,9.00
2019-04-14T19:28:36.212Z,9.10
2019-04-14T19:31:05.025Z,9.10
2019-04-14T19:33:34.221Z,9.10
2019-04-14T19:36:03.455Z,9.10
2019-04-14T19:38:32.744Z,9.00
2019-04-14T19:41:01.761Z,9.00
2019-04-14T19:43:30.513Z,9.10
2019-04-14T19:45:59.600Z,9.10
2019-04-14T19:48:28.353Z,9.10
2019-04-14T19:50:57.102Z,9.10
2019-04-14T19:53:25.925Z,9.10
2019-04-14T19:55:54.681Z,9.10
2019-04-14T19:58:23.491Z,9.10
2019-04-14T20:00:52.237Z,9.10
2019-04-14T20:03:20.978Z,9.00
2019-04-14T20:05:49.732Z,9.00
2019-04-14T20:08:18.774Z,9.10
2019-04-14T20:10:47.613Z,9.00
2019-04-14T20:13:16.393Z,9.00
2019-04-14T20:16:01.418Z,8.90
2019-04-14T20:18:49.802Z,8.90
2019-04-14T20:21:28.457Z,8.90
2019-04-14T20:24:05.893Z,8.90
2019-04-14T20:26:52.810Z,9.00
2019-04-14T20:29:27.536Z,9.00
2019-04-14T20:32:10.995Z,8.90
2019-04-14T20:34:39.824Z,8.70
2019-04-14T20:37:09.231Z,8.80
2019-04-14T20:39:38.113Z,8.80
2019-04-14T20:42:08.215Z,8.80
2019-04-14T20:44:37.425Z,8.80
2019-04-14T20:47:08.729Z,8.70
2019-04-14T20:49:38.129Z,8.60
2019-04-14T20:52:07.031Z,8.50
2019-04-14T20:54:35.799Z,8.60
2019-04-14T20:57:04.829Z,8.60
2019-04-14T20:59:33.598Z,8.60
